createdAt,value
2023-04-08T00:00:45.523Z,66.47
2023-04-08T00:03:23.405Z,80.22
2023-04-08T00:05:53.658Z,71.00
2023-04-08T00:08:24.376Z,70.47
2023-04-08T00:10:54.537Z,66.40
2023-04-08T00:13:25.128Z,77.82
2023-04-08T00:15:57.024Z,72.82
2023-04-08T00:18:27.979Z,65.75
2023-04-08T00:20:58.394Z,74.15
2023-04-08T00:23:29.226Z,67.65
2023-04-08T00:25:59.465Z,68.80
2023-04-08T00:28:29.936Z,64.70
2023-04-08T00:31:01.630Z,71.60
2023-04-08T00:33:34.505Z,70.13
2023-04-08T00:36:04.752Z,74.07
2023-04-08T00:38:35.391Z,69.82
2023-04-08T00:41:05.731Z,60.08
2023-04-08T00:43:36.701Z,67.15
2023-04-08T00:46:08.639Z,83.05
2023-04-08T00:48:39.247Z,84.90
2023-04-08T00:51:10.142Z,79.15
2023-04-08T00:53:40.872Z,86.22
2023-04-08T00:56:11.130Z,92.22
2023-04-08T00:58:42.265Z,81.13
2023-04-08T01:01:23.062Z,74.80
2023-04-08T01:04:08.910Z,74.03
2023-04-08T01:06:48.044Z,80.18
2023-04-08T01:09:22.729Z,75.32
2023-04-08T01:11:55.102Z,71.75
2023-04-08T01:14:29.466Z,78.97
2023-04-08T01:17:02.063Z,77.97
2023-04-08T01:19:37.105Z,70.93
2023-04-08T01:22:21.074Z,78.85
2023-04-08T01:24:55.484Z,72.07
2023-04-08T01:27:28.679Z,67.25
2023-04-08T01:30:00.633Z,68.18
2023-04-08T01:32:32.141Z,75.78
2023-04-08T01:35:07.062Z,84.57
2023-04-08T01:37:40.380Z,77.88
2023-04-08T01:40:13.727Z,87.60
2023-04-08T01:42:47.050Z,89.55
2023-04-08T01:45:18.954Z,86.20
2023-04-08T01:47:51.227Z,68.45
2023-04-08T01:50:25.360Z,69.30
2023-04-08T01:52:57.647Z,50.58
2023-04-08T01:55:29.426Z,43.10
2023-04-08T01:58:02.804Z,43.00
2023-04-08T02:00:35.858Z,41.88
2023-04-08T02:03:10.060Z,46.67
2023-04-08T02:05:41.696Z,47.45
2023-04-08T02:08:14.090Z,42.63
2023-04-08T02:10:44.760Z,44.15
2023-04-08T02:13:16.809Z,41.65
2023-04-08T02:15:55.282Z,39.40
2023-04-08T02:18:28.991Z,38.20
2023-04-08T02:21:04.486Z,39.63
2023-04-08T02:23:39.773Z,40.92
2023-04-08T02:26:16.907Z,40.22
2023-04-08T02:28:52.271Z,43.42
2023-04-08T02:31:27.755Z,43.28
2023-04-08T02:33:59.113Z,40.38
2023-04-08T02:36:34.808Z,40.92
2023-04-08T02:39:07.310Z,41.90
2023-04-08T02:41:37.992Z,40.30
2023-04-08T02:44:09.836Z,40.92
2023-04-08T02:46:44.444Z,41.92
2023-04-08T02:49:14.676Z,42.38
2023-04-08T02:51:45.476Z,35.67
2023-04-08T02:54:16.251Z,41.60
2023-04-08T02:56:48.763Z,38.17
2023-04-08T02:59:20.592Z,39.08
2023-04-08T03:01:51.566Z,63.70
2023-04-08T03:04:22.051Z,57.85
2023-04-08T03:06:53.348Z,83.20
2023-04-08T03:09:26.743Z,65.43
2023-04-08T03:11:58.521Z,41.17
2023-04-08T03:14:30.530Z,37.63
2023-04-08T03:17:01.336Z,35.85
2023-04-08T03:19:31.792Z,32.42
2023-04-08T03:22:02.518Z,27.17
2023-04-08T03:24:32.748Z,25.88
2023-04-08T03:27:03.383Z,29.17
2023-04-08T03:29:35.115Z,33.10
2023-04-08T03:32:06.467Z,31.27
2023-04-08T03:34:37.001Z,30.00
2023-04-08T03:37:08.158Z,30.08
2023-04-08T03:39:38.267Z,33.55
2023-04-08T03:42:08.950Z,32.60
2023-04-08T03:44:40.883Z,32.13
2023-04-08T03:47:11.437Z,33.67
2023-04-08T03:49:41.803Z,36.78
2023-04-08T03:52:12.516Z,36.63
2023-04-08T03:54:42.767Z,37.42
2023-04-08T03:57:13.781Z,36.97
2023-04-08T03:59:45.948Z,34.55
2023-04-08T04:02:16.908Z,38.00
2023-04-08T04:04:47.378Z,39.72
2023-04-08T04:07:18.177Z,41.58
2023-04-08T04:09:48.545Z,46.72
2023-04-08T04:12:19.180Z,38.15
2023-04-08T04:14:50.995Z,40.67
2023-04-08T04:17:21.744Z,41.92
2023-04-08T04:19:52.906Z,40.10
2023-04-08T04:22:23.502Z,42.03
2023-04-08T04:24:53.974Z,43.45
2023-04-08T04:27:24.639Z,42.72
2023-04-08T04:29:56.593Z,45.80
2023-04-08T04:32:27.377Z,41.72
2023-04-08T04:34:58.425Z,41.67
2023-04-08T04:37:28.891Z,40.47
2023-04-08T04:39:58.888Z,43.45
2023-04-08T04:42:29.724Z,41.83
2023-04-08T04:45:01.559Z,42.83
2023-04-08T04:47:33.421Z,44.65
2023-04-08T04:50:04.139Z,45.15
2023-04-08T04:52:38.161Z,34.50
2023-04-08T04:55:09.585Z,31.38
2023-04-08T04:57:40.163Z,34.35
2023-04-08T05:00:16.307Z,34.47
2023-04-08T05:02:47.472Z,33.78
2023-04-08T05:05:18.610Z,35.83
2023-04-08T05:07:49.548Z,36.58
2023-04-08T05:10:20.052Z,33.75
2023-04-08T05:12:51.361Z,29.50
2023-04-08T05:15:24.476Z,28.35
2023-04-08T05:17:56.251Z,30.25
2023-04-08T05:20:26.800Z,30.67
2023-04-08T05:22:57.610Z,33.83
2023-04-08T05:25:27.794Z,30.77
2023-04-08T05:27:58.740Z,33.78
2023-04-08T05:30:30.645Z,33.83
2023-04-08T05:33:01.367Z,35.15
2023-04-08T05:35:32.014Z,32.50
2023-04-08T05:38:02.745Z,34.97
2023-04-08T05:40:33.000Z,38.72
2023-04-08T05:43:03.739Z,38.17
2023-04-08T05:45:35.755Z,39.42
2023-04-08T05:48:06.859Z,43.50
2023-04-08T05:50:37.703Z,47.17
2023-04-08T05:53:08.256Z,47.40
2023-04-08T05:55:38.421Z,42.03
2023-04-08T05:58:09.231Z,43.08
2023-04-08T06:00:41.324Z,38.35
2023-04-08T06:03:12.320Z,36.13
2023-04-08T06:05:42.582Z,38.00
2023-04-08T06:08:13.125Z,37.13
2023-04-08T06:10:50.108Z,38.25
2023-04-08T06:13:22.124Z,38.83
2023-04-08T06:15:54.281Z,40.28
2023-04-08T06:18:25.897Z,38.40
2023-04-08T06:21:00.048Z,36.93
2023-04-08T06:26:30.586Z,32.53
2023-04-08T06:29:03.323Z,33.58
2023-04-08T06:31:35.132Z,35.15
2023-04-08T06:34:05.814Z,28.95
2023-04-08T06:36:36.949Z,28.00
2023-04-08T06:39:07.738Z,26.35
2023-04-08T06:41:38.019Z,31.10
2023-04-08T06:44:22.821Z,27.98
2023-04-08T06:46:54.613Z,30.33
2023-04-08T06:49:27.178Z,30.75
2023-04-08T06:51:58.488Z,28.55
2023-04-08T06:54:29.330Z,27.42
2023-04-08T06:57:00.019Z,26.48
2023-04-08T06:59:32.041Z,29.23
2023-04-08T07:02:05.273Z,28.65
2023-04-08T07:04:38.889Z,27.00
2023-04-08T07:07:09.740Z,26.10
2023-04-08T07:09:41.761Z,26.88
2023-04-08T07:12:12.456Z,28.52
2023-04-08T07:14:43.101Z,28.27
2023-04-08T07:17:15.024Z,28.95
2023-04-08T07:19:46.102Z,24.90
2023-04-08T07:22:16.512Z,24.15
2023-04-08T07:24:49.975Z,27.98
2023-04-08T07:27:20.757Z,25.08
2023-04-08T07:29:55.317Z,27.45
2023-04-08T07:32:27.734Z,23.98
2023-04-08T07:34:58.381Z,23.42
2023-04-08T07:37:28.717Z,23.45
2023-04-08T07:39:59.124Z,21.52
2023-04-08T07:42:29.405Z,20.48
2023-04-08T07:45:00.120Z,20.50
2023-04-08T07:47:32.059Z,20.10
2023-04-08T07:50:02.949Z,22.50
2023-04-08T07:52:33.785Z,21.45
2023-04-08T07:55:05.951Z,19.05
2023-04-08T07:57:36.612Z,19.52
2023-04-08T08:00:09.456Z,19.52
2023-04-08T08:02:48.227Z,20.17
2023-04-08T08:05:19.350Z,21.10
2023-04-08T08:07:50.592Z,17.38
2023-04-08T08:10:21.341Z,19.45
2023-04-08T08:12:51.736Z,18.55
2023-04-08T08:15:22.394Z,22.98
2023-04-08T08:17:54.318Z,20.88
2023-04-08T08:20:25.070Z,20.35
2023-04-08T08:22:57.722Z,21.30
2023-04-08T08:25:29.312Z,20.35
2023-04-08T08:28:02.726Z,18.98
2023-04-08T08:30:34.029Z,18.92
2023-04-08T08:33:05.995Z,18.95
2023-04-08T08:35:37.831Z,19.67
2023-04-08T08:38:08.009Z,21.38
2023-04-08T08:40:38.760Z,18.00
2023-04-08T08:43:09.197Z,20.10
2023-04-08T08:45:42.287Z,18.55
2023-04-08T08:48:14.202Z,20.35
2023-04-08T08:50:45.153Z,18.95
2023-04-08T08:53:15.500Z,18.83
2023-04-08T08:56:13.714Z,20.10
2023-04-08T08:58:36.700Z,18.35
2023-04-08T09:01:35.713Z,18.38
2023-04-08T09:04:14.451Z,20.98
2023-04-08T09:06:47.064Z,19.88
2023-04-08T09:09:17.384Z,21.52
2023-04-08T09:11:48.830Z,19.45
2023-04-08T09:14:23.805Z,18.92
2023-04-08T09:16:55.066Z,19.73
2023-04-08T09:19:26.886Z,19.33
2023-04-08T09:22:08.103Z,18.17
2023-04-08T09:24:39.429Z,18.35
2023-04-08T09:27:09.906Z,19.70
2023-04-08T09:29:41.187Z,21.23
2023-04-08T09:32:11.872Z,20.77
2023-04-08T09:34:43.493Z,21.10
2023-04-08T09:37:14.203Z,20.02
2023-04-08T09:39:44.398Z,25.73
2023-04-08T09:42:15.993Z,23.85
2023-04-08T09:44:48.556Z,23.38
2023-04-08T09:47:38.429Z,20.02
2023-04-08T09:50:12.105Z,21.02
2023-04-08T09:52:50.432Z,19.38
2023-04-08T09:55:24.731Z,18.90
2023-04-08T09:58:00.721Z,20.02
2023-04-08T10:00:39.110Z,18.00
2023-04-08T10:03:20.357Z,20.75
2023-04-08T10:05:54.211Z,21.33
2023-04-08T10:08:26.504Z,18.42
2023-04-08T10:10:57.595Z,19.67
2023-04-08T10:13:29.975Z,20.33
2023-04-08T10:16:22.420Z,21.15
2023-04-08T10:18:56.197Z,25.13
2023-04-08T10:24:14.356Z,21.65
2023-04-08T10:26:46.480Z,20.15
2023-04-08T10:29:44.011Z,18.90
2023-04-08T10:32:41.898Z,20.80
2023-04-08T10:35:12.608Z,18.13
2023-04-08T10:37:44.985Z,17.40
2023-04-08T10:40:21.421Z,18.45
2023-04-08T10:42:57.061Z,17.98
2023-04-08T10:45:28.040Z,19.70
2023-04-08T10:47:58.626Z,17.88
2023-04-08T10:50:29.424Z,16.52
2023-04-08T10:53:01.281Z,16.13
2023-04-08T10:55:33.918Z,15.95
2023-04-08T10:58:11.300Z,16.30
2023-04-08T11:00:42.277Z,15.25
2023-04-08T11:03:15.069Z,14.73
2023-04-08T11:05:46.433Z,14.65
2023-04-08T11:08:20.886Z,17.80
2023-04-08T11:10:51.981Z,18.50
2023-04-08T11:13:23.588Z,14.43
2023-04-08T11:15:54.791Z,16.17
2023-04-08T11:18:26.279Z,16.35
2023-04-08T11:20:58.957Z,17.17
2023-04-08T11:23:32.165Z,17.33
2023-04-08T11:26:04.669Z,15.77
2023-04-08T11:31:09.078Z,17.27
2023-04-08T11:33:39.574Z,15.25
2023-04-08T11:36:10.217Z,28.50
2023-04-08T11:38:42.757Z,48.38
2023-04-08T11:41:13.619Z,17.67
2023-04-08T11:43:54.782Z,15.63
2023-04-08T11:46:26.068Z,13.73
2023-04-08T11:49:05.226Z,14.15
2023-04-08T11:51:37.997Z,15.82
2023-04-08T11:54:30.978Z,15.07
2023-04-08T11:57:03.196Z,17.50
2023-04-08T11:59:33.467Z,16.15
2023-04-08T12:02:04.875Z,16.75
2023-04-08T12:04:35.986Z,14.98
2023-04-08T12:07:08.233Z,15.30
2023-04-08T12:09:40.368Z,14.63
2023-04-08T12:12:12.346Z,13.32
2023-04-08T12:14:43.569Z,17.10
2023-04-08T12:17:15.087Z,13.82
2023-04-08T12:19:45.575Z,18.48
2023-04-08T12:22:19.465Z,14.13
2023-04-08T12:24:51.632Z,15.93
2023-04-08T12:27:22.634Z,15.57
2023-04-08T12:29:53.574Z,15.57
2023-04-08T12:32:25.583Z,14.60
2023-04-08T12:34:56.072Z,14.93
2023-04-08T12:37:27.349Z,15.68
2023-04-08T12:39:59.059Z,12.43
2023-04-08T12:42:29.883Z,14.27
2023-04-08T12:45:00.153Z,16.13
2023-04-08T12:47:30.742Z,14.40
2023-04-08T12:50:01.112Z,16.40
2023-04-08T12:52:32.101Z,16.92
2023-04-08T12:55:03.772Z,16.70
2023-04-08T12:57:34.545Z,19.20
2023-04-08T13:00:05.634Z,18.25
2023-04-08T13:02:36.538Z,13.52
2023-04-08T13:05:07.716Z,13.70
2023-04-08T13:07:38.646Z,14.52
2023-04-08T13:10:11.485Z,15.38
2023-04-08T13:12:42.262Z,13.00
2023-04-08T13:15:13.231Z,14.00
2023-04-08T13:17:43.955Z,13.68
2023-04-08T13:20:14.661Z,13.70
2023-04-08T13:22:45.502Z,15.55
2023-04-08T13:25:17.212Z,17.67
2023-04-08T13:27:47.807Z,14.23
2023-04-08T13:30:18.338Z,13.77
2023-04-08T13:32:49.221Z,13.18
2023-04-08T13:35:19.631Z,12.10
2023-04-08T13:37:50.526Z,12.90
2023-04-08T13:40:22.063Z,11.57
2023-04-08T13:42:52.856Z,12.55
2023-04-08T13:45:23.583Z,13.57
2023-04-08T13:47:54.458Z,12.85
2023-04-08T13:50:25.000Z,16.77
2023-04-08T13:52:57.185Z,14.23
2023-04-08T13:55:29.033Z,12.02
2023-04-08T13:57:59.889Z,11.85
2023-04-08T14:00:31.396Z,12.57
2023-04-08T14:03:02.280Z,10.70
2023-04-08T14:05:32.763Z,12.02
2023-04-08T14:08:03.385Z,12.60
2023-04-08T14:10:35.375Z,12.73
2023-04-08T14:13:06.238Z,14.40
2023-04-08T14:15:36.648Z,12.48
2023-04-08T14:18:09.419Z,13.18
2023-04-08T14:20:41.488Z,12.57
2023-04-08T14:23:13.636Z,12.60
2023-04-08T14:25:45.395Z,14.38
2023-04-08T14:28:16.453Z,41.10
2023-04-08T14:30:47.613Z,13.15
2023-04-08T14:33:19.051Z,13.07
2023-04-08T14:35:49.339Z,12.00
2023-04-08T14:38:20.789Z,11.10
2023-04-08T14:40:52.674Z,12.43
2023-04-08T14:43:23.253Z,11.27
2023-04-08T14:45:53.947Z,10.93
2023-04-08T14:48:26.050Z,12.27
2023-04-08T14:50:57.065Z,13.23
2023-04-08T14:53:28.589Z,12.13
2023-04-08T14:56:02.251Z,12.60
2023-04-08T14:58:33.173Z,16.33
2023-04-08T15:01:03.752Z,12.50
2023-04-08T15:03:34.701Z,14.90
2023-04-08T15:06:06.681Z,15.13
2023-04-08T15:08:37.722Z,13.70
2023-04-08T15:11:09.831Z,13.63
2023-04-08T15:13:44.610Z,14.02
2023-04-08T15:16:17.874Z,13.90
2023-04-08T15:18:49.462Z,12.57
2023-04-08T15:21:23.615Z,13.23
2023-04-08T15:23:55.424Z,13.95
2023-04-08T15:26:27.503Z,13.73
2023-04-08T15:28:59.227Z,14.20
2023-04-08T15:31:29.589Z,15.23
2023-04-08T15:34:02.903Z,14.75
2023-04-08T15:36:33.902Z,15.07
2023-04-08T15:39:04.857Z,22.33
2023-04-08T15:41:36.629Z,17.60
2023-04-08T15:44:07.516Z,15.88
2023-04-08T15:46:38.178Z,17.45
2023-04-08T15:49:09.106Z,16.02
2023-04-08T15:51:39.587Z,18.92
2023-04-08T15:54:10.232Z,18.45
2023-04-08T15:56:42.584Z,15.93
2023-04-08T15:59:13.339Z,20.15
2023-04-08T16:01:44.279Z,17.27
2023-04-08T16:04:16.357Z,26.33
2023-04-08T16:06:47.397Z,21.60
2023-04-08T16:09:26.059Z,19.33
2023-04-08T16:11:57.899Z,19.05
2023-04-08T16:14:31.016Z,20.55
2023-04-08T16:17:06.493Z,18.15
2023-04-08T16:19:37.536Z,19.00
2023-04-08T16:22:08.023Z,18.92
2023-04-08T16:24:38.699Z,20.13
2023-04-08T16:27:10.990Z,17.15
2023-04-08T16:29:42.266Z,21.30
2023-04-08T16:32:12.590Z,20.00
2023-04-08T16:34:43.373Z,18.25
2023-04-08T16:37:14.840Z,20.30
2023-04-08T16:39:46.280Z,20.30
2023-04-08T16:42:18.439Z,22.63
2023-04-08T16:44:49.297Z,21.70
2023-04-08T16:47:19.543Z,18.65
2023-04-08T16:49:50.380Z,23.98
2023-04-08T16:52:21.091Z,29.00
2023-04-08T16:54:52.468Z,38.00
2023-04-08T16:57:24.196Z,35.90
2023-04-08T16:59:55.276Z,42.60
2023-04-08T17:02:26.134Z,35.38
2023-04-08T17:04:57.387Z,33.70
2023-04-08T17:07:28.438Z,35.63
2023-04-08T17:09:59.228Z,29.02
2023-04-08T17:12:31.462Z,29.77
2023-04-08T17:15:02.355Z,30.10
2023-04-08T17:17:33.482Z,28.73
2023-04-08T17:20:04.424Z,27.55
2023-04-08T17:22:34.787Z,28.73
2023-04-08T17:25:08.149Z,27.55
2023-04-08T17:27:40.212Z,24.23
2023-04-08T17:30:15.151Z,26.60
2023-04-08T17:32:46.136Z,33.97
2023-04-08T17:35:17.400Z,34.40
2023-04-08T17:37:47.774Z,30.30
2023-04-08T17:40:19.065Z,33.25
2023-04-08T17:42:50.956Z,35.70
2023-04-08T17:45:21.887Z,36.63
2023-04-08T17:47:53.015Z,36.30
2023-04-08T17:50:23.968Z,37.08
2023-04-08T17:52:54.668Z,38.97
2023-04-08T17:55:25.955Z,39.15
2023-04-08T17:57:57.820Z,41.90
2023-04-08T18:00:29.206Z,40.72
2023-04-08T18:02:59.502Z,41.72
2023-04-08T18:05:30.809Z,39.17
2023-04-08T18:08:00.976Z,41.60
2023-04-08T18:10:32.199Z,38.55
2023-04-08T18:15:38.127Z,36.47
2023-04-08T18:18:09.265Z,32.03
2023-04-08T18:20:40.081Z,30.27
2023-04-08T18:23:10.445Z,33.10
2023-04-08T18:25:44.629Z,32.90
2023-04-08T18:28:16.569Z,34.08
2023-04-08T18:30:51.598Z,35.22
2023-04-08T18:33:22.187Z,34.72
2023-04-08T18:35:53.814Z,34.13
2023-04-08T18:38:24.258Z,36.53
2023-04-08T18:40:56.453Z,37.10
2023-04-08T18:43:28.878Z,35.53
2023-04-08T18:45:59.829Z,38.83
2023-04-08T18:48:30.677Z,38.47
2023-04-08T18:51:04.410Z,38.38
2023-04-08T18:56:14.880Z,38.47
2023-04-08T18:58:47.607Z,38.70
2023-04-08T19:01:20.723Z,36.70
2023-04-08T19:03:52.056Z,41.50
2023-04-08T19:06:23.423Z,39.33
2023-04-08T19:08:54.210Z,36.45
2023-04-08T19:11:29.032Z,39.95
2023-04-08T19:14:01.380Z,40.17
2023-04-08T19:16:32.108Z,38.33
2023-04-08T19:19:02.880Z,35.63
2023-04-08T19:21:35.001Z,43.72
2023-04-08T19:24:06.569Z,39.38
2023-04-08T19:26:37.448Z,41.13
2023-04-08T19:29:12.000Z,40.83
2023-04-08T19:31:42.985Z,43.75
2023-04-08T19:34:13.626Z,44.42
2023-04-08T19:36:44.379Z,43.35
2023-04-08T19:39:14.586Z,43.55
2023-04-08T19:41:45.505Z,42.13
2023-04-08T19:44:17.355Z,41.35
2023-04-08T19:46:50.786Z,45.58
2023-04-08T19:49:21.890Z,47.25
2023-04-08T19:51:52.729Z,45.10
2023-04-08T19:54:23.069Z,51.47
2023-04-08T19:56:53.991Z,51.20
2023-04-08T19:59:26.081Z,53.17
2023-04-08T20:01:56.916Z,51.33
2023-04-08T20:04:27.567Z,51.28
2023-04-08T20:06:58.423Z,50.45
2023-04-08T20:09:28.695Z,52.70
2023-04-08T20:12:04.639Z,49.00
2023-04-08T20:14:40.580Z,52.50
2023-04-08T20:17:11.442Z,55.30
2023-04-08T20:19:42.192Z,55.78
2023-04-08T20:22:12.787Z,52.40
2023-04-08T20:24:43.173Z,51.38
2023-04-08T20:27:13.912Z,53.65
2023-04-08T20:29:45.610Z,51.03
2023-04-08T20:32:16.270Z,50.25
2023-04-08T20:34:46.818Z,55.63
2023-04-08T20:37:18.401Z,53.55
2023-04-08T20:39:49.224Z,53.00
2023-04-08T20:42:22.789Z,52.80
2023-04-08T20:45:08.319Z,49.45
2023-04-08T20:47:55.635Z,50.65
2023-04-08T20:50:28.569Z,49.45
2023-04-08T20:52:59.420Z,52.63
2023-04-08T20:55:30.638Z,52.72
2023-04-08T20:58:05.863Z,51.05
2023-04-08T21:00:40.318Z,49.33
2023-04-08T21:03:11.233Z,50.17
2023-04-08T21:05:42.662Z,51.13
2023-04-08T21:08:14.951Z,49.58
2023-04-08T21:10:45.630Z,53.53
2023-04-08T21:13:16.388Z,55.63
2023-04-08T21:15:49.225Z,53.92
2023-04-08T21:18:21.410Z,53.45
2023-04-08T21:20:53.939Z,51.95
2023-04-08T21:23:25.079Z,54.80
2023-04-08T21:26:05.582Z,50.33
2023-04-08T21:28:42.162Z,51.50
2023-04-08T21:31:19.074Z,52.95
2023-04-08T21:33:50.992Z,50.22
2023-04-08T21:36:24.422Z,47.45
2023-04-08T21:38:57.777Z,50.42
2023-04-08T21:41:30.302Z,53.33
2023-04-08T21:44:01.473Z,52.20
2023-04-08T21:49:07.923Z,50.38
2023-04-08T21:51:41.043Z,50.33
2023-04-08T21:54:23.594Z,50.40
2023-04-08T21:56:56.652Z,51.53
2023-04-08T21:59:27.875Z,50.00
2023-04-08T22:02:00.074Z,49.25
2023-04-08T22:04:31.209Z,46.33
2023-04-08T22:07:01.609Z,52.65
2023-04-08T22:09:32.143Z,44.22
2023-04-08T22:12:02.835Z,45.72
2023-04-08T22:14:33.679Z,46.22
2023-04-08T22:17:05.843Z,45.88
2023-04-08T22:19:36.695Z,43.10
2023-04-08T22:22:06.988Z,50.70
2023-04-08T22:24:38.261Z,49.40
2023-04-08T22:27:08.578Z,48.78
2023-04-08T22:29:39.251Z,51.30
2023-04-08T22:32:10.966Z,48.42
2023-04-08T22:34:42.434Z,48.70
2023-04-08T22:37:12.806Z,52.20
2023-04-08T22:39:43.366Z,49.25
2023-04-08T22:42:13.480Z,50.67
2023-04-08T22:44:44.042Z,51.60
2023-04-08T22:47:15.828Z,50.38
2023-04-08T22:49:46.468Z,52.65
2023-04-08T22:52:16.907Z,48.95
2023-04-08T22:54:48.055Z,50.35
2023-04-08T22:57:18.398Z,53.28
2023-04-08T22:59:49.060Z,56.42
2023-04-08T23:02:20.921Z,53.88
2023-04-08T23:04:56.189Z,59.40
2023-04-08T23:07:26.319Z,60.40
2023-04-08T23:09:56.950Z,57.75
2023-04-08T23:12:27.528Z,62.33
2023-04-08T23:14:58.521Z,56.15
2023-04-08T23:17:30.008Z,53.92
2023-04-08T23:20:00.647Z,58.53
2023-04-08T23:22:31.190Z,56.70
2023-04-08T23:25:02.357Z,56.22
2023-04-08T23:27:32.934Z,60.75
2023-04-08T23:30:05.795Z,57.83
2023-04-08T23:32:37.937Z,63.27
2023-04-08T23:35:10.781Z,60.58
2023-04-08T23:37:41.136Z,55.78
2023-04-08T23:40:12.382Z,60.67
2023-04-08T23:42:42.668Z,55.97
2023-04-08T23:45:13.500Z,59.95
2023-04-08T23:47:45.142Z,58.85
2023-04-08T23:50:15.907Z,53.63
2023-04-08T23:52:46.435Z,56.17
2023-04-08T23:55:17.409Z,59.15
2023-04-08T23:57:49.345Z,56.63
